sensor_id;sensor_type;location;lat;lon;timestamp;pressure;altitude;pressure_sealevel;temperature;humidity
46007;BME280;31738;50.188;8.524;2023-11-19T00:00:54;98468.19;;;9.11;96.79
46007;BME280;31738;50.188;8.524;2023-11-19T00:03:19;98461.78;;;9.12;96.71
46007;BME280;31738;50.188;8.524;2023-11-19T00:05:45;98450.81;;;9.13;97.19
46007;BME280;31738;50.188;8.524;2023-11-19T00:08:11;98464.97;;;9.14;96.88
46007;BME280;31738;50.188;8.524;2023-11-19T00:10:36;98465.50;;;9.16;96.86
46007;BME280;31738;50.188;8.524;2023-11-19T00:13:02;98461.25;;;9.15;97.08
46007;BME280;31738;50.188;8.524;2023-11-19T00:15:30;98462.56;;;9.17;96.76
46007;BME280;31738;50.188;8.524;2023-11-19T00:17:55;98459.63;;;9.19;96.65
46007;BME280;31738;50.188;8.524;2023-11-19T00:20:21;98465.50;;;9.21;96.78
46007;BME280;31738;50.188;8.524;2023-11-19T00:22:49;98461.75;;;9.22;97.15
46007;BME280;31738;50.188;8.524;2023-11-19T00:25:18;98466.31;;;9.21;96.81
46007;BME280;31738;50.188;8.524;2023-11-19T00:27:44;98477.53;;;9.23;96.89
46007;BME280;31738;50.188;8.524;2023-11-19T00:30:10;98473.00;;;9.24;97.08
46007;BME280;31738;50.188;8.524;2023-11-19T00:32:36;98474.59;;;9.25;96.99
46007;BME280;31738;50.188;8.524;2023-11-19T00:35:04;98474.03;;;9.28;96.72
46007;BME280;31738;50.188;8.524;2023-11-19T00:37:30;98458.81;;;9.28;97.06
46007;BME280;31738;50.188;8.524;2023-11-19T00:39:55;98445.16;;;9.30;97.28
46007;BME280;31738;50.188;8.524;2023-11-19T00:42:22;98442.47;;;9.30;96.91
46007;BME280;31738;50.188;8.524;2023-11-19T00:44:48;98457.44;;;9.31;96.80
46007;BME280;31738;50.188;8.524;2023-11-19T00:47:13;98460.13;;;9.31;96.72
46007;BME280;31738;50.188;8.524;2023-11-19T00:49:39;98447.56;;;9.31;97.04
46007;BME280;31738;50.188;8.524;2023-11-19T00:52:05;98439.25;;;9.33;97.20
46007;BME280;31738;50.188;8.524;2023-11-19T00:54:32;98440.84;;;9.34;96.68
46007;BME280;31738;50.188;8.524;2023-11-19T00:56:57;98436.31;;;9.34;96.83
46007;BME280;31738;50.188;8.524;2023-11-19T00:59:23;98437.13;;;9.35;97.29
46007;BME280;31738;50.188;8.524;2023-11-19T01:01:49;98417.28;;;9.36;96.73
46007;BME280;31738;50.188;8.524;2023-11-19T01:04:14;98417.28;;;9.36;96.89
46007;BME280;31738;50.188;8.524;2023-11-19T01:06:40;98413.53;;;9.37;97.00
46007;BME280;31738;50.188;8.524;2023-11-19T01:09:07;98410.59;;;9.38;97.21
46007;BME280;31738;50.188;8.524;2023-11-19T01:11:34;98412.22;;;9.39;97.10
46007;BME280;31738;50.188;8.524;2023-11-19T01:14:00;98412.97;;;9.40;96.93
46007;BME280;31738;50.188;8.524;2023-11-19T01:16:26;98413.78;;;9.40;97.21
46007;BME280;31738;50.188;8.524;2023-11-19T01:18:51;98403.09;;;9.40;97.06
46007;BME280;31738;50.188;8.524;2023-11-19T01:21:18;98393.19;;;9.41;97.13
46007;BME280;31738;50.188;8.524;2023-11-19T01:23:43;98383.28;;;9.41;96.60
46007;BME280;31738;50.188;8.524;2023-11-19T01:26:09;98389.44;;;9.42;96.94
46007;BME280;31738;50.188;8.524;2023-11-19T01:28:36;98416.75;;;9.44;97.18
46007;BME280;31738;50.188;8.524;2023-11-19T01:31:01;98423.16;;;9.43;97.27
46007;BME280;31738;50.188;8.524;2023-11-19T01:33:29;98419.69;;;9.42;97.04
46007;BME280;31738;50.188;8.524;2023-11-19T01:35:55;98399.88;;;9.43;97.07
46007;BME280;31738;50.188;8.524;2023-11-19T01:38:21;98394.25;;;9.45;97.01
46007;BME280;31738;50.188;8.524;2023-11-19T01:40:46;98391.56;;;9.45;96.60
46007;BME280;31738;50.188;8.524;2023-11-19T01:43:12;98392.09;;;9.47;97.17
46007;BME280;31738;50.188;8.524;2023-11-19T01:45:39;98393.69;;;9.48;97.11
46007;BME280;31738;50.188;8.524;2023-11-19T01:48:05;98380.84;;;9.50;97.36
46007;BME280;31738;50.188;8.524;2023-11-19T01:50:31;98381.38;;;9.47;97.02
46007;BME280;31738;50.188;8.524;2023-11-19T01:52:57;98385.38;;;9.49;97.29
46007;BME280;31738;50.188;8.524;2023-11-19T01:55:24;98368.53;;;9.49;97.22
46007;BME280;31738;50.188;8.524;2023-11-19T01:57:52;98362.38;;;9.48;97.09
46007;BME280;31738;50.188;8.524;2023-11-19T02:00:18;98357.03;;;9.48;97.51
46007;BME280;31738;50.188;8.524;2023-11-19T02:02:46;98354.06;;;9.50;97.22
46007;BME280;31738;50.188;8.524;2023-11-19T02:05:12;98350.31;;;9.51;97.15
46007;BME280;31738;50.188;8.524;2023-11-19T02:07:38;98338.53;;;9.52;97.35
46007;BME280;31738;50.188;8.524;2023-11-19T02:10:04;98338.53;;;9.52;97.20
46007;BME280;31738;50.188;8.524;2023-11-19T02:12:31;98336.38;;;9.54;97.46
46007;BME280;31738;50.188;8.524;2023-11-19T02:15:02;98326.19;;;9.56;97.65
46007;BME280;31738;50.188;8.524;2023-11-19T02:17:31;98323.25;;;9.57;97.77
46007;BME280;31738;50.188;8.524;2023-11-19T02:19:57;98324.81;;;9.58;97.23
46007;BME280;31738;50.188;8.524;2023-11-19T02:22:32;98324.06;;;9.58;97.68
46007;BME280;31738;50.188;8.524;2023-11-19T02:25:04;98325.91;;;9.62;97.01
46007;BME280;31738;50.188;8.524;2023-11-19T02:30:07;98323.50;;;9.61;97.58
46007;BME280;31738;50.188;8.524;2023-11-19T02:32:34;98315.97;;;9.63;97.35
46007;BME280;31738;50.188;8.524;2023-11-19T02:35:01;98322.66;;;9.65;97.58
46007;BME280;31738;50.188;8.524;2023-11-19T02:37:27;98321.28;;;9.68;97.56
46007;BME280;31738;50.188;8.524;2023-11-19T02:39:53;98321.03;;;9.69;97.45
46007;BME280;31738;50.188;8.524;2023-11-19T02:42:19;98325.00;;;9.72;97.43
46007;BME280;31738;50.188;8.524;2023-11-19T02:44:45;98317.50;;;9.74;97.49
46007;BME280;31738;50.188;8.524;2023-11-19T02:47:11;98303.06;;;9.75;97.16
46007;BME280;31738;50.188;8.524;2023-11-19T02:49:37;98300.09;;;9.76;97.45
46007;BME280;31738;50.188;8.524;2023-11-19T02:52:03;98314.28;;;9.77;97.21
46007;BME280;31738;50.188;8.524;2023-11-19T02:54:43;98304.09;;;9.79;97.46
46007;BME280;31738;50.188;8.524;2023-11-19T02:57:08;98310.53;;;9.78;97.78
46007;BME280;31738;50.188;8.524;2023-11-19T02:59:39;98315.34;;;9.81;97.75
46007;BME280;31738;50.188;8.524;2023-11-19T03:02:07;98315.06;;;9.82;97.57
46007;BME280;31738;50.188;8.524;2023-11-19T03:04:37;98305.13;;;9.83;97.34
46007;BME280;31738;50.188;8.524;2023-11-19T03:07:06;98300.56;;;9.83;97.30
46007;BME280;31738;50.188;8.524;2023-11-19T03:09:35;98285.31;;;9.84;97.59
46007;BME280;31738;50.188;8.524;2023-11-19T03:12:01;98294.66;;;9.86;97.20
46007;BME280;31738;50.188;8.524;2023-11-19T03:14:27;98293.84;;;9.86;97.37
46007;BME280;31738;50.188;8.524;2023-11-19T03:16:53;98290.91;;;9.87;97.39
46007;BME280;31738;50.188;8.524;2023-11-19T03:19:18;98288.75;;;9.89;97.39
46007;BME280;31738;50.188;8.524;2023-11-19T03:21:44;98293.28;;;9.89;97.59
46007;BME280;31738;50.188;8.524;2023-11-19T03:24:12;98291.41;;;9.89;97.54
46007;BME280;31738;50.188;8.524;2023-11-19T03:26:38;98293.81;;;9.91;97.44
46007;BME280;31738;50.188;8.524;2023-11-19T03:29:03;98286.31;;;9.93;97.72
46007;BME280;31738;50.188;8.524;2023-11-19T03:31:29;98301.31;;;9.94;97.45
46007;BME280;31738;50.188;8.524;2023-11-19T03:33:54;98297.53;;;9.95;97.76
46007;BME280;31738;50.188;8.524;2023-11-19T03:36:20;98285.75;;;9.96;97.51
46007;BME280;31738;50.188;8.524;2023-11-19T03:38:45;98291.13;;;9.96;97.80
46007;BME280;31738;50.188;8.524;2023-11-19T03:41:12;98287.88;;;9.99;97.61
46007;BME280;31738;50.188;8.524;2023-11-19T03:43:39;98285.72;;;10.01;97.60
46007;BME280;31738;50.188;8.524;2023-11-19T03:46:15;98298.03;;;10.02;97.48
46007;BME280;31738;50.188;8.524;2023-11-19T03:48:40;98307.16;;;10.01;97.80
46007;BME280;31738;50.188;8.524;2023-11-19T03:51:06;98298.03;;;10.02;97.54
46007;BME280;31738;50.188;8.524;2023-11-19T03:53:31;98297.47;;;10.05;97.86
46007;BME280;31738;50.188;8.524;2023-11-19T03:55:57;98292.91;;;10.05;97.60
46007;BME280;31738;50.188;8.524;2023-11-19T03:58:22;98274.94;;;10.06;97.55
46007;BME280;31738;50.188;8.524;2023-11-19T04:00:48;98284.63;;;10.07;97.87
46007;BME280;31738;50.188;8.524;2023-11-19T04:03:13;98275.50;;;10.08;97.52
46007;BME280;31738;50.188;8.524;2023-11-19T04:05:38;98264.78;;;10.08;97.79
46007;BME280;31738;50.188;8.524;2023-11-19T04:08:04;98265.31;;;10.10;97.67
46007;BME280;31738;50.188;8.524;2023-11-19T04:10:30;98269.00;;;10.14;97.40
46007;BME280;31738;50.188;8.524;2023-11-19T04:12:56;98276.53;;;10.12;97.62
46007;BME280;31738;50.188;8.524;2023-11-19T04:15:21;98261.53;;;10.11;97.71
46007;BME280;31738;50.188;8.524;2023-11-19T04:17:47;98264.22;;;10.11;97.52
46007;BME280;31738;50.188;8.524;2023-11-19T04:20:12;98280.28;;;10.11;97.53
46007;BME280;31738;50.188;8.524;2023-11-19T04:22:39;98278.16;;;10.13;97.50
46007;BME280;31738;50.188;8.524;2023-11-19T04:25:05;98274.38;;;10.14;97.59
46007;BME280;31738;50.188;8.524;2023-11-19T04:27:30;98270.59;;;10.15;97.41
46007;BME280;31738;50.188;8.524;2023-11-19T04:29:56;98266.06;;;10.15;97.60
46007;BME280;31738;50.188;8.524;2023-11-19T04:32:21;98263.38;;;10.15;97.72
46007;BME280;31738;50.188;8.524;2023-11-19T04:34:48;98259.88;;;10.15;97.69
46007;BME280;31738;50.188;8.524;2023-11-19T04:37:14;98242.75;;;10.16;97.56
46007;BME280;31738;50.188;8.524;2023-11-19T04:39:39;98239.25;;;10.15;97.83
46007;BME280;31738;50.188;8.524;2023-11-19T04:42:05;98241.66;;;10.17;97.66
46007;BME280;31738;50.188;8.524;2023-11-19T04:44:31;98247.00;;;10.17;97.68
46007;BME280;31738;50.188;8.524;2023-11-19T04:46:57;98255.34;;;10.15;97.96
46007;BME280;31738;50.188;8.524;2023-11-19T04:49:22;98245.13;;;10.17;97.62
46007;BME280;31738;50.188;8.524;2023-11-19T04:51:48;98258.25;;;10.19;97.67
46007;BME280;31738;50.188;8.524;2023-11-19T04:54:13;98256.34;;;10.19;97.85
46007;BME280;31738;50.188;8.524;2023-11-19T04:56:39;98249.13;;;10.20;97.90
46007;BME280;31738;50.188;8.524;2023-11-19T04:59:05;98266.50;;;10.22;97.64
46007;BME280;31738;50.188;8.524;2023-11-19T05:01:32;98258.19;;;10.24;97.73
46007;BME280;31738;50.188;8.524;2023-11-19T05:03:58;98267.84;;;10.25;97.61
46007;BME280;31738;50.188;8.524;2023-11-19T05:06:26;98266.75;;;10.26;97.91
46007;BME280;31738;50.188;8.524;2023-11-19T05:08:52;98275.59;;;10.26;97.62
46007;BME280;31738;50.188;8.524;2023-11-19T05:11:19;98258.44;;;10.27;97.72
46007;BME280;31738;50.188;8.524;2023-11-19T05:13:45;98261.91;;;10.28;97.75
46007;BME280;31738;50.188;8.524;2023-11-19T05:16:11;98255.47;;;10.29;97.84
46007;BME280;31738;50.188;8.524;2023-11-19T05:18:40;98252.78;;;10.29;97.84
46007;BME280;31738;50.188;8.524;2023-11-19T05:21:05;98247.16;;;10.30;97.81
46007;BME280;31738;50.188;8.524;2023-11-19T05:23:32;98249.53;;;10.32;97.98
46007;BME280;31738;50.188;8.524;2023-11-19T05:26:00;98251.16;;;10.33;97.85
46007;BME280;31738;50.188;8.524;2023-11-19T05:28:26;98251.66;;;10.35;97.83
46007;BME280;31738;50.188;8.524;2023-11-19T05:30:51;98267.47;;;10.36;97.88
46007;BME280;31738;50.188;8.524;2023-11-19T05:33:17;98259.13;;;10.38;97.91
46007;BME280;31738;50.188;8.524;2023-11-19T05:35:42;98256.97;;;10.40;97.87
46007;BME280;31738;50.188;8.524;2023-11-19T05:38:07;98257.78;;;10.41;97.92
46007;BME280;31738;50.188;8.524;2023-11-19T05:40:35;98250.53;;;10.41;98.05
46007;BME280;31738;50.188;8.524;2023-11-19T05:43:00;98248.38;;;10.43;97.99
46007;BME280;31738;50.188;8.524;2023-11-19T05:45:25;98244.59;;;10.44;98.01
46007;BME280;31738;50.188;8.524;2023-11-19T05:47:51;98232.81;;;10.45;98.07
46007;BME280;31738;50.188;8.524;2023-11-19T05:50:18;98227.66;;;10.49;98.14
46007;BME280;31738;50.188;8.524;2023-11-19T05:52:43;98237.03;;;10.51;98.10
46007;BME280;31738;50.188;8.524;2023-11-19T05:55:09;98235.41;;;10.50;98.01
46007;BME280;31738;50.188;8.524;2023-11-19T05:57:36;98240.19;;;10.53;98.21
46007;BME280;31738;50.188;8.524;2023-11-19T06:00:03;98248.00;;;10.55;98.31
46007;BME280;31738;50.188;8.524;2023-11-19T06:02:37;98246.09;;;10.55;98.19
46007;BME280;31738;50.188;8.524;2023-11-19T06:05:04;98251.44;;;10.55;98.38
46007;BME280;31738;50.188;8.524;2023-11-19T06:07:31;98249.28;;;10.57;98.31
46007;BME280;31738;50.188;8.524;2023-11-19T06:09:56;98257.84;;;10.59;98.23
46007;BME280;31738;50.188;8.524;2023-11-19T06:12:22;98259.44;;;10.60;98.55
46007;BME280;31738;50.188;8.524;2023-11-19T06:14:47;98255.66;;;10.61;98.29
46007;BME280;31738;50.188;8.524;2023-11-19T06:17:13;98261.56;;;10.63;98.30
46007;BME280;31738;50.188;8.524;2023-11-19T06:19:39;98271.72;;;10.66;98.43
46007;BME280;31738;50.188;8.524;2023-11-19T06:22:04;98262.56;;;10.67;98.31
46007;BME280;31738;50.188;8.524;2023-11-19T06:24:29;98266.59;;;10.70;98.44
46007;BME280;31738;50.188;8.524;2023-11-19T06:26:55;98255.84;;;10.70;98.26
46007;BME280;31738;50.188;8.524;2023-11-19T06:29:20;98259.03;;;10.72;98.61
46007;BME280;31738;50.188;8.524;2023-11-19T06:31:46;98263.03;;;10.74;98.37
46007;BME280;31738;50.188;8.524;2023-11-19T06:34:15;98257.69;;;10.74;98.70
46007;BME280;31738;50.188;8.524;2023-11-19T06:36:41;98251.75;;;10.77;98.91
46007;BME280;31738;50.188;8.524;2023-11-19T06:39:09;98252.75;;;10.81;98.81
46007;BME280;31738;50.188;8.524;2023-11-19T06:41:34;98257.56;;;10.84;98.50
46007;BME280;31738;50.188;8.524;2023-11-19T06:43:59;98251.91;;;10.86;98.84
46007;BME280;31738;50.188;8.524;2023-11-19T06:46:25;98257.78;;;10.88;98.85
46007;BME280;31738;50.188;8.524;2023-11-19T06:48:50;98266.66;;;10.88;98.68
46007;BME280;31738;50.188;8.524;2023-11-19T06:51:16;98271.72;;;10.90;98.95
46007;BME280;31738;50.188;8.524;2023-11-19T06:53:45;98266.56;;;10.93;98.83
46007;BME280;31738;50.188;8.524;2023-11-19T06:56:24;98263.81;;;10.98;98.94
46007;BME280;31738;50.188;8.524;2023-11-19T06:58:50;98250.94;;;11.00;99.08
46007;BME280;31738;50.188;8.524;2023-11-19T07:01:19;98248.75;;;11.02;98.94
46007;BME280;31738;50.188;8.524;2023-11-19T07:03:45;98255.16;;;11.06;99.13
46007;BME280;31738;50.188;8.524;2023-11-19T07:06:11;98249.78;;;11.06;99.06
46007;BME280;31738;50.188;8.524;2023-11-19T07:08:39;98243.84;;;11.09;99.01
46007;BME280;31738;50.188;8.524;2023-11-19T07:11:04;98247.03;;;11.11;99.11
46007;BME280;31738;50.188;8.524;2023-11-19T07:13:30;98254.00;;;11.12;98.95
46007;BME280;31738;50.188;8.524;2023-11-19T07:15:56;98251.03;;;11.14;99.19
46007;BME280;31738;50.188;8.524;2023-11-19T07:18:21;98258.50;;;11.17;99.07
46007;BME280;31738;50.188;8.524;2023-11-19T07:20:49;98251.25;;;11.17;98.98
46007;BME280;31738;50.188;8.524;2023-11-19T07:23:15;98247.47;;;11.18;99.15
46007;BME280;31738;50.188;8.524;2023-11-19T07:25:44;98249.88;;;11.20;99.23
46007;BME280;31738;50.188;8.524;2023-11-19T07:28:12;98261.91;;;11.22;99.27
46007;BME280;31738;50.188;8.524;2023-11-19T07:30:38;98258.63;;;11.25;99.19
46007;BME280;31738;50.188;8.524;2023-11-19T07:33:04;98261.84;;;11.27;99.24
46007;BME280;31738;50.188;8.524;2023-11-19T07:35:30;98264.22;;;11.29;99.20
46007;BME280;31738;50.188;8.524;2023-11-19T07:37:56;98256.69;;;11.31;99.09
46007;BME280;31738;50.188;8.524;2023-11-19T07:40:23;98259.88;;;11.33;99.21
46007;BME280;31738;50.188;8.524;2023-11-19T07:42:49;98254.78;;;11.31;99.02
46007;BME280;31738;50.188;8.524;2023-11-19T07:45:15;98260.69;;;11.33;99.05
46007;BME280;31738;50.188;8.524;2023-11-19T07:47:40;98258.00;;;11.33;98.93
46007;BME280;31738;50.188;8.524;2023-11-19T07:50:06;98274.09;;;11.33;99.15
46007;BME280;31738;50.188;8.524;2023-11-19T07:52:31;98275.19;;;11.32;99.06
46007;BME280;31738;50.188;8.524;2023-11-19T07:54:57;98281.06;;;11.34;99.24
46007;BME280;31738;50.188;8.524;2023-11-19T07:57:22;98284.56;;;11.35;99.23
46007;BME280;31738;50.188;8.524;2023-11-19T07:59:49;98286.94;;;11.36;99.26
46007;BME280;31738;50.188;8.524;2023-11-19T08:02:15;98285.88;;;11.37;99.05
46007;BME280;31738;50.188;8.524;2023-11-19T08:04:40;98286.38;;;11.39;99.14
46007;BME280;31738;50.188;8.524;2023-11-19T08:07:10;98290.09;;;11.43;99.17
46007;BME280;31738;50.188;8.524;2023-11-19T08:09:36;98287.31;;;11.48;99.16
46007;BME280;31738;50.188;8.524;2023-11-19T08:12:03;98289.94;;;11.53;99.11
46007;BME280;31738;50.188;8.524;2023-11-19T08:14:29;98289.66;;;11.55;99.21
46007;BME280;31738;50.188;8.524;2023-11-19T08:16:56;98295.25;;;11.58;99.25
46007;BME280;31738;50.188;8.524;2023-11-19T08:19:22;98278.56;;;11.61;99.63
46007;BME280;31738;50.188;8.524;2023-11-19T08:21:47;98275.31;;;11.64;99.04
46007;BME280;31738;50.188;8.524;2023-11-19T08:24:13;98280.69;;;11.64;99.43
46007;BME280;31738;50.188;8.524;2023-11-19T08:26:38;98282.78;;;11.67;99.24
46007;BME280;31738;50.188;8.524;2023-11-19T08:29:04;98286.78;;;11.70;99.23
46007;BME280;31738;50.188;8.524;2023-11-19T08:31:29;98287.00;;;11.73;99.33
46007;BME280;31738;50.188;8.524;2023-11-19T08:33:55;98286.41;;;11.76;99.21
46007;BME280;31738;50.188;8.524;2023-11-19T08:36:20;98298.75;;;11.77;99.31
46007;BME280;31738;50.188;8.524;2023-11-19T08:38:46;98307.38;;;11.74;99.17
46007;BME280;31738;50.188;8.524;2023-11-19T08:41:12;98298.84;;;11.72;99.38
46007;BME280;31738;50.188;8.524;2023-11-19T08:43:37;98309.88;;;11.71;99.36
46007;BME280;31738;50.188;8.524;2023-11-19T08:46:03;98304.81;;;11.69;99.06
46007;BME280;31738;50.188;8.524;2023-11-19T08:48:29;98302.69;;;11.66;99.45
46007;BME280;31738;50.188;8.524;2023-11-19T08:50:54;98300.78;;;11.67;99.78
46007;BME280;31738;50.188;8.524;2023-11-19T08:53:20;98299.44;;;11.69;99.73
46007;BME280;31738;50.188;8.524;2023-11-19T08:55:46;98292.94;;;11.70;99.79
46007;BME280;31738;50.188;8.524;2023-11-19T08:58:11;98296.16;;;11.72;99.56
46007;BME280;31738;50.188;8.524;2023-11-19T09:00:37;98292.31;;;11.78;99.74
46007;BME280;31738;50.188;8.524;2023-11-19T09:03:02;98287.06;;;11.87;99.86
46007;BME280;31738;50.188;8.524;2023-11-19T09:05:28;98287.69;;;11.97;99.66
46007;BME280;31738;50.188;8.524;2023-11-19T09:07:53;98292.34;;;12.11;99.84
46007;BME280;31738;50.188;8.524;2023-11-19T09:10:20;98274.94;;;12.22;99.92
46007;BME280;31738;50.188;8.524;2023-11-19T09:12:45;98290.91;;;12.32;99.85
46007;BME280;31738;50.188;8.524;2023-11-19T09:15:10;98294.50;;;12.41;99.83
46007;BME280;31738;50.188;8.524;2023-11-19T09:17:36;98283.06;;;12.49;99.73
46007;BME280;31738;50.188;8.524;2023-11-19T09:20:01;98285.06;;;12.57;99.79
46007;BME280;31738;50.188;8.524;2023-11-19T09:22:27;98276.28;;;12.65;99.91
46007;BME280;31738;50.188;8.524;2023-11-19T09:24:52;98288.59;;;12.71;99.78
46007;BME280;31738;50.188;8.524;2023-11-19T09:27:18;98287.88;;;12.79;99.71
46007;BME280;31738;50.188;8.524;2023-11-19T09:29:43;98279.91;;;12.87;99.81
46007;BME280;31738;50.188;8.524;2023-11-19T09:32:13;98281.13;;;12.95;99.62
46007;BME280;31738;50.188;8.524;2023-11-19T09:34:38;98283.22;;;12.98;100.00
46007;BME280;31738;50.188;8.524;2023-11-19T09:37:04;98293.41;;;13.01;99.75
46007;BME280;31738;50.188;8.524;2023-11-19T09:39:29;98284.72;;;13.04;99.89
46007;BME280;31738;50.188;8.524;2023-11-19T09:41:55;98296.47;;;13.08;99.95
46007;BME280;31738;50.188;8.524;2023-11-19T09:44:20;98285.72;;;13.08;99.70
46007;BME280;31738;50.188;8.524;2023-11-19T09:46:46;98277.34;;;13.09;99.91
46007;BME280;31738;50.188;8.524;2023-11-19T09:49:14;98303.97;;;13.11;99.86
46007;BME280;31738;50.188;8.524;2023-11-19T09:51:40;98297.50;;;13.12;99.98
46007;BME280;31738;50.188;8.524;2023-11-19T09:54:09;98295.28;;;13.14;99.86
46007;BME280;31738;50.188;8.524;2023-11-19T09:56:38;98296.09;;;13.14;99.56
46007;BME280;31738;50.188;8.524;2023-11-19T09:59:05;98299.00;;;13.18;99.41
46007;BME280;31738;50.188;8.524;2023-11-19T10:01:30;98299.47;;;13.20;98.87
46007;BME280;31738;50.188;8.524;2023-11-19T10:03:57;98308.06;;;13.22;98.74
46007;BME280;31738;50.188;8.524;2023-11-19T10:06:24;98307.44;;;13.25;98.43
46007;BME280;31738;50.188;8.524;2023-11-19T10:08:52;98318.72;;;13.27;97.97
46007;BME280;31738;50.188;8.524;2023-11-19T10:11:18;98312.22;;;13.28;97.43
46007;BME280;31738;50.188;8.524;2023-11-19T10:13:44;98322.09;;;13.32;96.83
46007;BME280;31738;50.188;8.524;2023-11-19T10:16:12;98310.25;;;13.33;96.00
46007;BME280;31738;50.188;8.524;2023-11-19T10:18:48;98325.50;;;13.38;95.02
46007;BME280;31738;50.188;8.524;2023-11-19T10:21:17;98328.97;;;13.38;94.70
46007;BME280;31738;50.188;8.524;2023-11-19T10:23:56;98316.81;;;13.41;94.15
46007;BME280;31738;50.188;8.524;2023-11-19T10:26:23;98319.00;;;13.39;93.87
46007;BME280;31738;50.188;8.524;2023-11-19T10:28:49;98325.38;;;13.43;93.13
46007;BME280;31738;50.188;8.524;2023-11-19T10:31:16;98333.38;;;13.48;92.69
46007;BME280;31738;50.188;8.524;2023-11-19T10:33:42;98350.53;;;13.52;92.20
46007;BME280;31738;50.188;8.524;2023-11-19T10:36:13;98344.56;;;13.55;91.65
46007;BME280;31738;50.188;8.524;2023-11-19T10:38:40;98348.84;;;13.56;91.32
46007;BME280;31738;50.188;8.524;2023-11-19T10:41:06;98356.63;;;13.57;91.20
46007;BME280;31738;50.188;8.524;2023-11-19T10:43:43;98343.81;;;13.63;90.80
46007;BME280;31738;50.188;8.524;2023-11-19T10:46:11;98363.78;;;13.62;90.52
46007;BME280;31738;50.188;8.524;2023-11-19T10:48:38;98355.41;;;13.63;89.96
46007;BME280;31738;50.188;8.524;2023-11-19T10:51:05;98362.22;;;13.61;89.50
46007;BME280;31738;50.188;8.524;2023-11-19T10:53:37;98374.06;;;13.60;88.67
46007;BME280;31738;50.188;8.524;2023-11-19T10:56:10;98390.22;;;13.60;88.42
46007;BME280;31738;50.188;8.524;2023-11-19T10:58:37;98388.03;;;13.62;87.39
46007;BME280;31738;50.188;8.524;2023-11-19T11:01:13;98369.09;;;13.67;87.35
46007;BME280;31738;50.188;8.524;2023-11-19T11:03:40;98376.88;;;13.68;87.26
46007;BME280;31738;50.188;8.524;2023-11-19T11:06:06;98379.13;;;13.75;86.67
46007;BME280;31738;50.188;8.524;2023-11-19T11:08:32;98382.84;;;13.79;86.13
46007;BME280;31738;50.188;8.524;2023-11-19T11:11:01;98375.81;;;13.78;86.11
46007;BME280;31738;50.188;8.524;2023-11-19T11:13:27;98382.03;;;13.78;86.00
46007;BME280;31738;50.188;8.524;2023-11-19T11:15:56;98379.03;;;13.80;85.56
46007;BME280;31738;50.188;8.524;2023-11-19T11:18:26;98370.94;;;13.80;85.49
46007;BME280;31738;50.188;8.524;2023-11-19T11:20:58;98369.25;;;13.84;84.38
46007;BME280;31738;50.188;8.524;2023-11-19T11:23:38;98392.41;;;13.85;83.46
46007;BME280;31738;50.188;8.524;2023-11-19T11:26:23;98373.53;;;13.85;83.64
46007;BME280;31738;50.188;8.524;2023-11-19T11:29:16;98387.00;;;13.85;83.13
46007;BME280;31738;50.188;8.524;2023-11-19T11:32:08;98388.13;;;13.84;82.71
46007;BME280;31738;50.188;8.524;2023-11-19T11:37:47;98395.59;;;13.87;82.22
46007;BME280;31738;50.188;8.524;2023-11-19T11:40:15;98392.41;;;13.85;82.03
46007;BME280;31738;50.188;8.524;2023-11-19T11:42:41;98387.81;;;13.86;81.49
46007;BME280;31738;50.188;8.524;2023-11-19T11:45:12;98372.41;;;13.86;81.23
46007;BME280;31738;50.188;8.524;2023-11-19T11:50:13;98392.59;;;13.89;80.38
46007;BME280;31738;50.188;8.524;2023-11-19T11:55:34;98390.59;;;13.94;80.13
46007;BME280;31738;50.188;8.524;2023-11-19T11:58:00;98386.78;;;13.95;79.98
46007;BME280;31738;50.188;8.524;2023-11-19T12:02:55;98383.97;;;14.00;78.58
46007;BME280;31738;50.188;8.524;2023-11-19T12:05:21;98371.00;;;14.02;78.67
46007;BME280;31738;50.188;8.524;2023-11-19T12:08:00;98385.16;;;14.08;77.46
46007;BME280;31738;50.188;8.524;2023-11-19T12:10:29;98386.56;;;14.05;77.99
46007;BME280;31738;50.188;8.524;2023-11-19T12:13:04;98373.09;;;14.05;77.62
46007;BME280;31738;50.188;8.524;2023-11-19T12:15:32;98380.38;;;14.05;77.19
46007;BME280;31738;50.188;8.524;2023-11-19T12:17:58;98383.25;;;14.08;76.74
46007;BME280;31738;50.188;8.524;2023-11-19T12:20:25;98380.56;;;14.08;76.26
46007;BME280;31738;50.188;8.524;2023-11-19T12:22:52;98379.16;;;14.11;76.04
46007;BME280;31738;50.188;8.524;2023-11-19T12:25:18;98382.03;;;14.14;75.62
46007;BME280;31738;50.188;8.524;2023-11-19T12:27:46;98383.31;;;14.17;75.50
46007;BME280;31738;50.188;8.524;2023-11-19T12:30:25;98372.53;;;14.17;75.22
46007;BME280;31738;50.188;8.524;2023-11-19T12:32:51;98376.34;;;14.16;75.57
46007;BME280;31738;50.188;8.524;2023-11-19T12:35:19;98372.53;;;14.17;75.44
46007;BME280;31738;50.188;8.524;2023-11-19T12:37:49;98376.53;;;14.19;75.81
46007;BME280;31738;50.188;8.524;2023-11-19T12:40:21;98371.91;;;14.20;74.97
46007;BME280;31738;50.188;8.524;2023-11-19T12:42:48;98375.94;;;14.22;74.87
46007;BME280;31738;50.188;8.524;2023-11-19T12:45:14;98378.03;;;14.25;74.36
46007;BME280;31738;50.188;8.524;2023-11-19T12:47:41;98385.53;;;14.28;74.12
46007;BME280;31738;50.188;8.524;2023-11-19T12:50:08;98372.81;;;14.29;73.98
46007;BME280;31738;50.188;8.524;2023-11-19T12:52:37;98374.75;;;14.28;74.19
46007;BME280;31738;50.188;8.524;2023-11-19T12:55:04;98358.25;;;14.30;74.20
46007;BME280;31738;50.188;8.524;2023-11-19T12:57:38;98363.34;;;14.31;74.35
46007;BME280;31738;50.188;8.524;2023-11-19T13:00:05;98368.72;;;14.31;74.03
46007;BME280;31738;50.188;8.524;2023-11-19T13:02:47;98368.63;;;14.36;73.55
46007;BME280;31738;50.188;8.524;2023-11-19T13:05:33;98367.50;;;14.37;73.18
46007;BME280;31738;50.188;8.524;2023-11-19T13:08:08;98360.31;;;14.33;74.58
46007;BME280;31738;50.188;8.524;2023-11-19T13:10:50;98363.13;;;14.28;74.29
46007;BME280;31738;50.188;8.524;2023-11-19T13:13:16;98374.75;;;14.28;73.62
46007;BME280;31738;50.188;8.524;2023-11-19T13:15:42;98381.72;;;14.29;72.94